Diamond Bluff, Wisconsin
Current Conditions -  °F | °C
As of 11:31 PM on Saturday 25 Oct 2014 (Local Time) from KRGK Reporting Station
Clear Clear  
Wind Chill: 37°   Ceiling: Unl
Heat Index: 37°   Visibility: 10mi
Dew Point: 28°   Wind: 0mph
Humidity: 70%   Direction: NA
Pressure: 30.04"   Gusts: NA
Location:  44.6468°N, 92.567°W
Report Text: KRGK 260431Z AUTO 00000KT 10SM CLR 03/M02 A3004 RMK AO2
Loading
Personal Weather Stations






























Interactive Weather Map
Tropical Storm Tracking
New forecast layout! Learn more

10-Day Weather Forecast

Advertisements
Track Severe Weather on mobile